Time;durP1;ratioP1;P1;durP2;ratioP2;P2;SDS_P1;SDS_P2;PMS_P1;PMS_P2;Temp;Humidity;BMP_temperature;BMP_pressure;BME280_temperature;BME280_humidity;BME280_pressure;Samples;Min_cycle;Max_cycle;Signal;HPM_P1;HPM_P2
2023/01/03 00:01:51;;;;;;;25.02;19.05;;;;;;;;;;5093411;28;20044;-60
2023/01/03 00:04:18;;;;;;;24.10;17.55;;;;;;;;;;5093329;28;20499;-60
2023/01/03 00:06:46;;;;;;;20.70;15.85;;;;;;;;;;5093361;28;20043;-60
2023/01/03 00:09:14;;;;;;;20.08;16.52;;;;;;;;;;5092002;28;20044;-60
2023/01/03 00:14:28;;;;;;;16.70;14.32;;;;;;;;;;5092662;28;20098;-60
2023/01/03 00:16:56;;;;;;;21.90;15.73;;;;;;;;;;5092596;28;20470;-60
2023/01/03 00:19:24;;;;;;;17.83;13.93;;;;;;;;;;5092767;28;20055;-60
2023/01/03 00:21:50;;;;;;;18.13;15.30;;;;;;;;;;5093068;28;20051;-60
2023/01/03 00:24:16;;;;;;;17.33;13.60;;;;;;;;;;5092760;28;20491;-60
2023/01/03 00:26:43;;;;;;;16.00;12.45;;;;;;;;;;5092908;28;20081;-61
2023/01/03 00:29:11;;;;;;;20.10;17.45;;;;;;;;;;5093069;28;20063;-60
2023/01/03 00:31:38;;;;;;;24.35;20.25;;;;;;;;;;5092812;28;20040;-60
2023/01/03 00:34:05;;;;;;;25.23;21.98;;;;;;;;;;5092802;28;20047;-60
2023/01/03 00:36:31;;;;;;;20.02;16.63;;;;;;;;;;5093026;28;20051;-60
2023/01/03 00:38:58;;;;;;;17.98;14.93;;;;;;;;;;5092970;28;20127;-60
2023/01/03 00:41:25;;;;;;;16.90;15.15;;;;;;;;;;5092553;28;20483;-60
2023/01/03 00:43:51;;;;;;;18.45;15.35;;;;;;;;;;5092743;28;20055;-60
2023/01/03 00:46:18;;;;;;;18.38;16.08;;;;;;;;;;5092557;28;20046;-60
2023/01/03 00:48:45;;;;;;;20.10;15.73;;;;;;;;;;5092837;28;20139;-60
2023/01/03 00:51:14;;;;;;;17.52;14.38;;;;;;;;;;5092507;28;20408;-60
2023/01/03 00:53:41;;;;;;;17.83;15.02;;;;;;;;;;5092521;28;20119;-60
2023/01/03 00:56:08;;;;;;;17.13;14.83;;;;;;;;;;5092552;28;20406;-60
2023/01/03 00:58:35;;;;;;;15.68;14.07;;;;;;;;;;5092412;28;20291;-60
2023/01/03 01:01:08;;;;;;;16.80;14.00;;;;;;;;;;5092609;28;20131;-60
2023/01/03 01:03:37;;;;;;;16.83;14.18;;;;;;;;;;5091282;28;20097;-60
2023/01/03 01:06:03;;;;;;;;;;;;;;;;;;5092817;28;20060;-60
2023/01/03 01:08:29;;;;;;;15.32;13.68;;;;;;;;;;5092569;28;19954;-60
2023/01/03 01:11:02;;;;;;;18.58;16.50;;;;;;;;;;5092393;28;20044;-60
2023/01/03 01:13:29;;;;;;;19.65;15.50;;;;;;;;;;5092305;28;20044;-60
2023/01/03 01:15:59;;;;;;;17.23;15.43;;;;;;;;;;5092352;28;20051;-60
2023/01/03 01:18:25;;;;;;;18.60;14.07;;;;;;;;;;5092635;28;20040;-60
2023/01/03 01:20:52;;;;;;;17.67;14.00;;;;;;;;;;5092222;28;20123;-60
2023/01/03 01:23:18;;;;;;;13.45;8.95;;;;;;;;;;5092390;28;20062;-60
2023/01/03 01:25:44;;;;;;;15.45;11.80;;;;;;;;;;5091957;28;20070;-60
2023/01/03 01:28:11;;;;;;;12.95;7.75;;;;;;;;;;5091821;28;20377;-60
2023/01/03 01:30:37;;;;;;;10.75;8.52;;;;;;;;;;5092079;28;20056;-60
2023/01/03 01:33:04;;;;;;;11.43;10.25;;;;;;;;;;5092043;28;20095;-60
2023/01/03 01:35:30;;;;;;;9.90;8.55;;;;;;;;;;5091986;28;20399;-60
2023/01/03 01:37:57;;;;;;;12.63;7.40;;;;;;;;;;5091742;28;20044;-60
2023/01/03 01:40:23;;;;;;;11.73;9.48;;;;;;;;;;5091810;28;20201;-60
2023/01/03 01:45:36;;;;;;;9.20;7.75;;;;;;;;;;5092079;28;20426;-60
2023/01/03 01:48:03;;;;;;;;;;;;;;;;;;5092355;28;20074;-60
2023/01/03 01:50:35;;;;;;;8.90;6.88;;;;;;;;;;5091657;28;19930;-60
2023/01/03 01:53:13;;;;;;;10.20;6.38;;;;;;;;;;5091571;28;20054;-60
2023/01/03 01:55:53;;;;;;;10.52;5.85;;;;;;;;;;5077831;28;20476;-60
2023/01/03 01:58:21;;;;;;;9.48;6.20;;;;;;;;;;5095136;28;20168;-60
2023/01/03 02:00:47;;;;;;;12.45;5.80;;;;;;;;;;5096176;28;20131;-60
2023/01/03 02:03:14;;;;;;;10.80;5.95;;;;;;;;;;5096101;28;20068;-60
2023/01/03 02:05:42;;;;;;;9.68;6.65;;;;;;;;;;5095921;28;20048;-60
2023/01/03 02:08:09;;;;;;;11.60;7.07;;;;;;;;;;5095994;28;20044;-60
2023/01/03 02:10:48;;;;;;;9.00;6.70;;;;;;;;;;5095940;28;20098;-60
2023/01/03 02:13:24;;;;;;;11.35;6.78;;;;;;;;;;5095724;28;20048;-60
2023/01/03 02:15:56;;;;;;;13.00;7.43;;;;;;;;;;5095381;28;20050;-60
2023/01/03 02:18:23;;;;;;;9.93;7.25;;;;;;;;;;5095535;28;20044;-60
2023/01/03 02:20:59;;;;;;;10.32;7.30;;;;;;;;;;5095728;28;20040;-60
2023/01/03 02:23:29;;;;;;;12.18;10.13;;;;;;;;;;5095780;28;20419;-60
2023/01/03 02:26:07;;;;;;;13.20;10.00;;;;;;;;;;5095191;28;20518;-60
2023/01/03 02:28:36;;;;;;;14.95;11.00;;;;;;;;;;5095627;28;20062;-60
2023/01/03 02:31:29;;;;;;;14.70;9.75;;;;;;;;;;5095249;28;20052;-60
2023/01/03 02:34:05;;;;;;;14.20;9.40;;;;;;;;;;5092322;28;20047;-60
2023/01/03 02:36:31;;;;;;;11.45;9.02;;;;;;;;;;5095380;28;21184;-60
2023/01/03 02:39:02;;;;;;;14.52;9.30;;;;;;;;;;5095118;28;20411;-60
2023/01/03 02:41:34;;;;;;;13.40;9.65;;;;;;;;;;5094934;28;20052;-60
2023/01/03 02:44:06;;;;;;;15.35;9.80;;;;;;;;;;5095012;28;20503;-60
2023/01/03 02:46:41;;;;;;;14.23;9.13;;;;;;;;;;5095165;28;20405;-60
2023/01/03 02:49:09;;;;;;;11.98;8.90;;;;;;;;;;5095278;28;20051;-60
2023/01/03 02:51:58;;;;;;;13.32;10.38;;;;;;;;;;5094735;28;20503;-60
2023/01/03 02:54:40;;;;;;;12.80;9.52;;;;;;;;;;5091770;28;20133;-60
2023/01/03 02:57:10;;;;;;;15.70;10.35;;;;;;;;;;5095004;28;20441;-60
2023/01/03 02:59:52;;;;;;;19.05;11.88;;;;;;;;;;5094969;28;20423;-60
2023/01/03 03:02:20;;;;;;;13.95;10.13;;;;;;;;;;5094663;28;20086;-60
2023/01/03 03:04:49;;;;;;;21.65;12.35;;;;;;;;;;5094514;28;20052;-60
2023/01/03 03:07:23;;;;;;;19.10;11.18;;;;;;;;;;5094814;28;20136;-60
2023/01/03 03:15:43;;;;;;;18.67;10.43;;;;;;;;;;5012043;28;20474;-60
2023/01/03 03:18:13;;;;;;;17.42;9.70;;;;;;;;;;5069160;28;20044;-60
2023/01/03 03:26:13;;;;;;;13.68;8.80;;;;;;;;;;5094028;28;20517;-60
2023/01/03 03:28:43;;;;;;;17.95;9.00;;;;;;;;;;5094121;28;20048;-60
2023/01/03 03:31:22;;;;;;;14.70;8.30;;;;;;;;;;5094303;28;20063;-60
2023/01/03 03:34:23;;;;;;;12.77;7.97;;;;;;;;;;5094233;28;20105;-60
2023/01/03 03:36:53;;;;;;;14.98;7.75;;;;;;;;;;5031474;28;20142;-60
2023/01/03 03:45:12;;;;;;;13.13;7.72;;;;;;;;;;5093761;28;20135;-60
2023/01/03 03:47:49;;;;;;;10.18;6.75;;;;;;;;;;5092406;28;20124;-60
2023/01/03 03:50:16;;;;;;;13.15;6.28;;;;;;;;;;5094160;28;20044;-60
2023/01/03 03:52:45;;;;;;;11.18;5.90;;;;;;;;;;5093541;28;20476;-60
2023/01/03 03:55:15;;;;;;;13.40;6.63;;;;;;;;;;5093620;28;20040;-60
2023/01/03 03:57:47;;;;;;;9.48;6.05;;;;;;;;;;5093887;28;20420;-60
2023/01/03 04:00:16;;;;;;;8.40;5.10;;;;;;;;;;5093783;28;20051;-60
2023/01/03 04:02:45;;;;;;;6.80;4.35;;;;;;;;;;5093452;28;20143;-60
2023/01/03 04:05:15;;;;;;;5.15;3.55;;;;;;;;;;5093493;28;20575;-60
2023/01/03 04:07:41;;;;;;;7.05;3.50;;;;;;;;;;5093704;28;20051;-60
2023/01/03 04:10:08;;;;;;;8.70;3.70;;;;;;;;;;5093400;28;20059;-60
2023/01/03 04:12:35;;;;;;;8.73;3.28;;;;;;;;;;5093208;28;20059;-60
2023/01/03 04:15:02;;;;;;;9.23;3.00;;;;;;;;;;5093496;28;20046;-60
2023/01/03 04:17:29;;;;;;;8.38;3.20;;;;;;;;;;5093447;28;20407;-60
2023/01/03 04:19:55;;;;;;;5.55;3.10;;;;;;;;;;5092859;28;20411;-60
2023/01/03 04:22:21;;;;;;;7.18;3.28;;;;;;;;;;5093003;28;20051;-60
2023/01/03 04:24:48;;;;;;;6.60;3.05;;;;;;;;;;5093039;28;20048;-60
2023/01/03 04:27:14;;;;;;;6.55;2.97;;;;;;;;;;5092807;28;20074;-60
2023/01/03 04:29:40;;;;;;;6.10;3.42;;;;;;;;;;5092958;28;20497;-60
2023/01/03 04:32:08;;;;;;;10.98;3.58;;;;;;;;;;5093037;28;20079;-60
2023/01/03 04:34:35;;;;;;;6.53;3.92;;;;;;;;;;5092979;28;20048;-60
2023/01/03 04:37:01;;;;;;;8.20;3.40;;;;;;;;;;5092732;28;20079;-60
2023/01/03 04:39:28;;;;;;;7.70;3.53;;;;;;;;;;5092726;28;20526;-60
2023/01/03 04:41:54;;;;;;;6.57;3.53;;;;;;;;;;5092928;28;20044;-60
2023/01/03 04:44:20;;;;;;;6.78;3.20;;;;;;;;;;5092960;28;20065;-60
2023/01/03 04:46:47;;;;;;;9.10;3.30;;;;;;;;;;5092528;28;20062;-60
2023/01/03 04:49:19;;;;;;;10.88;2.80;;;;;;;;;;5092926;28;20075;-60
2023/01/03 04:51:45;;;;;;;6.47;2.30;;;;;;;;;;5092594;28;20055;-60
2023/01/03 04:54:11;;;;;;;4.93;2.22;;;;;;;;;;5092389;28;20055;-60
2023/01/03 04:56:38;;;;;;;4.47;2.33;;;;;;;;;;5092391;28;20048;-60
2023/01/03 04:59:04;;;;;;;6.57;2.05;;;;;;;;;;5092366;28;20500;-60
2023/01/03 05:01:31;;;;;;;6.95;2.10;;;;;;;;;;5092650;28;20040;-60
2023/01/03 05:03:58;;;;;;;6.78;2.28;;;;;;;;;;5092363;28;20051;-60
2023/01/03 05:06:25;;;;;;;7.65;1.83;;;;;;;;;;5092584;28;20134;-60
2023/01/03 05:08:51;;;;;;;10.90;1.83;;;;;;;;;;5092575;28;20048;-60
2023/01/03 05:11:18;;;;;;;7.70;2.00;;;;;;;;;;5092393;28;20070;-60
2023/01/03 05:13:44;;;;;;;6.43;1.40;;;;;;;;;;5092121;28;20047;-60
2023/01/03 05:16:13;;;;;;;11.38;1.80;;;;;;;;;;5092349;28;20055;-60
2023/01/03 05:18:41;;;;;;;6.72;1.60;;;;;;;;;;5092427;28;20097;-60
2023/01/03 05:26:49;;;;;;;8.88;1.55;;;;;;;;;;5091958;28;20056;-60
2023/01/03 05:29:17;;;;;;;11.00;1.95;;;;;;;;;;5091888;28;20135;-60
2023/01/03 05:31:43;;;;;;;8.88;1.75;;;;;;;;;;5091124;28;20048;-60
2023/01/03 05:34:10;;;;;;;9.88;1.80;;;;;;;;;;5091793;28;20426;-60
2023/01/03 05:36:37;;;;;;;10.70;2.20;;;;;;;;;;5092108;28;20044;-60
2023/01/03 05:39:03;;;;;;;10.55;2.33;;;;;;;;;;5091939;28;20059;-60
2023/01/03 05:44:15;;;;;;;14.80;2.25;;;;;;;;;;5091752;28;20048;-60
2023/01/03 05:46:41;;;;;;;7.40;1.92;;;;;;;;;;5091655;28;20488;-60
2023/01/03 05:49:08;;;;;;;13.18;2.50;;;;;;;;;;5092028;28;20052;-61
2023/01/03 05:51:34;;;;;;;11.13;2.63;;;;;;;;;;5091770;28;20048;-60
2023/01/03 05:54:01;;;;;;;19.25;3.45;;;;;;;;;;5091754;28;20393;-60
2023/01/03 05:56:27;;;;;;;14.32;2.97;;;;;;;;;;5091670;28;20048;-60
2023/01/03 05:58:53;;;;;;;11.90;2.80;;;;;;;;;;5091613;28;20063;-61
2023/01/03 06:01:20;;;;;;;17.88;3.72;;;;;;;;;;5091536;28;20411;-61
2023/01/03 06:03:46;;;;;;;11.65;3.38;;;;;;;;;;5091794;28;20142;-60
2023/01/03 06:06:14;;;;;;;15.38;3.22;;;;;;;;;;5091576;28;20040;-60
2023/01/03 06:08:41;;;;;;;18.38;3.50;;;;;;;;;;5091689;28;20048;-60
2023/01/03 06:11:08;;;;;;;11.98;3.65;;;;;;;;;;5091737;28;20135;-60
2023/01/03 06:13:35;;;;;;;12.00;3.35;;;;;;;;;;5091465;28;20442;-60
2023/01/03 06:18:50;;;;;;;12.45;2.65;;;;;;;;;;5091488;28;20052;-60
2023/01/03 06:21:16;;;;;;;12.27;2.58;;;;;;;;;;5091338;28;20052;-60
2023/01/03 06:23:46;;;;;;;9.50;3.00;;;;;;;;;;5091765;28;20079;-60
2023/01/03 06:26:16;;;;;;;15.48;2.88;;;;;;;;;;5091279;28;20125;-61
2023/01/03 06:28:42;;;;;;;13.55;3.10;;;;;;;;;;5091622;28;20055;-61
2023/01/03 06:31:09;;;;;;;11.27;3.20;;;;;;;;;;5091323;28;20465;-61
2023/01/03 06:33:36;;;;;;;18.23;3.53;;;;;;;;;;5091385;28;20036;-61
2023/01/03 06:36:04;;;;;;;16.33;3.72;;;;;;;;;;5091310;28;20048;-60
2023/01/03 06:38:30;;;;;;;15.02;3.65;;;;;;;;;;5091203;28;20540;-60
2023/01/03 06:40:57;;;;;;;17.65;3.42;;;;;;;;;;5091234;28;20487;-61
2023/01/03 06:43:23;;;;;;;14.05;3.00;;;;;;;;;;5092977;28;20072;-61
2023/01/03 06:54:07;;;;;;;20.20;3.10;;;;;;;;;;5094773;28;20051;-61
2023/01/03 06:56:34;;;;;;;16.30;2.53;;;;;;;;;;5094846;28;20079;-61
2023/01/03 06:59:00;;;;;;;13.43;2.50;;;;;;;;;;5094860;28;20276;-60
2023/01/03 07:01:26;;;;;;;17.35;2.45;;;;;;;;;;5093333;28;20059;-61
2023/01/03 07:03:53;;;;;;;17.48;2.95;;;;;;;;;;5094807;28;20048;-60
2023/01/03 07:06:19;;;;;;;15.38;2.63;;;;;;;;;;5094557;28;20048;-61
2023/01/03 07:08:46;;;;;;;26.80;3.45;;;;;;;;;;5094694;28;20146;-60
2023/01/03 07:11:14;;;;;;;21.58;3.20;;;;;;;;;;5094453;28;20055;-59
2023/01/03 07:13:58;;;;;;;15.95;3.28;;;;;;;;;;5094358;28;20488;-59
2023/01/03 07:16:28;;;;;;;13.50;2.80;;;;;;;;;;5094627;28;20102;-60
2023/01/03 07:18:54;;;;;;;16.88;2.80;;;;;;;;;;5094545;28;20102;-59
2023/01/03 07:21:22;;;;;;;16.63;2.80;;;;;;;;;;5094242;28;20491;-59
2023/01/03 07:23:49;;;;;;;17.50;2.65;;;;;;;;;;5094611;28;20406;-59
2023/01/03 07:26:15;;;;;;;18.27;2.92;;;;;;;;;;5094023;28;20056;-59
2023/01/03 07:28:41;;;;;;;15.52;2.92;;;;;;;;;;5094114;28;20052;-59
2023/01/03 07:31:08;;;;;;;12.25;1.98;;;;;;;;;;5094269;28;20419;-59
2023/01/03 07:33:37;;;;;;;11.52;2.50;;;;;;;;;;5094333;28;20055;-60
2023/01/03 07:36:05;;;;;;;8.80;2.20;;;;;;;;;;5094167;28;20139;-59
2023/01/03 07:38:38;;;;;;;10.93;2.40;;;;;;;;;;5094025;28;20552;-59
2023/01/03 07:41:07;;;;;;;12.65;2.38;;;;;;;;;;5094456;28;20070;-60
2023/01/03 07:43:36;;;;;;;17.15;2.90;;;;;;;;;;5094148;28;20054;-60
2023/01/03 07:46:12;;;;;;;19.45;3.33;;;;;;;;;;5093859;28;20052;-59
2023/01/03 07:48:39;;;;;;;23.98;3.35;;;;;;;;;;5093839;28;20051;-60
2023/01/03 07:51:06;;;;;;;17.73;3.13;;;;;;;;;;5093748;28;20488;-60
2023/01/03 07:53:33;;;;;;;14.90;3.15;;;;;;;;;;5093564;28;20091;-60
2023/01/03 07:56:02;;;;;;;24.52;3.97;;;;;;;;;;5093030;28;20058;-60
2023/01/03 07:58:36;;;;;;;21.77;3.03;;;;;;;;;;5093631;28;20093;-60
2023/01/03 08:01:06;;;;;;;26.25;3.83;;;;;;;;;;5093803;28;20040;-60
2023/01/03 08:03:33;;;;;;;21.23;2.83;;;;;;;;;;5093558;28;20055;-60
2023/01/03 08:06:00;;;;;;;22.77;2.83;;;;;;;;;;5093335;28;20062;-60
2023/01/03 08:08:27;;;;;;;20.10;2.55;;;;;;;;;;5093593;28;20048;-60
2023/01/03 08:13:39;;;;;;;19.05;3.05;;;;;;;;;;5093538;28;20044;-59
2023/01/03 08:16:07;;;;;;;19.10;3.08;;;;;;;;;;5093493;28;20062;-59
2023/01/03 08:18:33;;;;;;;16.42;2.95;;;;;;;;;;5093245;28;20036;-59
2023/01/03 08:21:00;;;;;;;11.90;2.47;;;;;;;;;;5093076;28;20044;-59
2023/01/03 08:23:28;;;;;;;14.75;2.80;;;;;;;;;;5093676;28;20074;-59
2023/01/03 08:26:04;;;;;;;19.42;2.72;;;;;;;;;;5092931;28;20056;-59
2023/01/03 08:28:31;;;;;;;19.30;2.28;;;;;;;;;;5093575;28;20093;-59
2023/01/03 08:30:59;;;;;;;20.75;2.85;;;;;;;;;;5092932;28;20086;-59
2023/01/03 08:33:28;;;;;;;34.45;3.35;;;;;;;;;;5092793;28;20048;-59
2023/01/03 08:35:57;;;;;;;13.45;2.13;;;;;;;;;;5090788;28;20052;-60
2023/01/03 08:38:25;;;;;;;12.90;2.00;;;;;;;;;;5090312;28;20040;-59
2023/01/03 08:40:52;;;;;;;14.80;1.50;;;;;;;;;;5091814;28;20079;-59
2023/01/03 08:43:19;;;;;;;5.07;1.17;;;;;;;;;;5092113;28;20126;-60
2023/01/03 08:45:47;;;;;;;8.32;0.88;;;;;;;;;;5091941;28;20040;-60
2023/01/03 08:48:13;;;;;;;;;;;;;;;;;;5092126;28;20484;-59
2023/01/03 08:50:40;;;;;;;10.23;1.45;;;;;;;;;;5088319;28;19942;-59
2023/01/03 08:53:06;;;;;;;13.60;1.27;;;;;;;;;;5092130;28;20086;-58
2023/01/03 08:55:33;;;;;;;14.95;1.27;;;;;;;;;;5091794;28;20499;-58
2023/01/03 08:57:59;;;;;;;5.25;0.68;;;;;;;;;;5091763;28;20506;-58
2023/01/03 09:00:26;;;;;;;5.70;1.05;;;;;;;;;;5092071;28;20127;-58
2023/01/03 09:02:55;;;;;;;6.38;0.95;;;;;;;;;;5092021;28;20131;-58
2023/01/03 09:05:22;;;;;;;6.47;1.00;;;;;;;;;;5091293;28;20131;-58
2023/01/03 09:07:49;;;;;;;5.45;0.90;;;;;;;;;;5091559;28;20097;-58
2023/01/03 09:10:15;;;;;;;10.73;1.63;;;;;;;;;;5091250;28;20089;-57
2023/01/03 09:12:41;;;;;;;12.00;2.65;;;;;;;;;;5091293;28;20142;-58
2023/01/03 09:15:08;;;;;;;15.57;2.60;;;;;;;;;;5090975;28;20043;-58
2023/01/03 09:17:34;;;;;;;15.35;2.95;;;;;;;;;;5091318;28;20050;-58
2023/01/03 09:20:01;;;;;;;23.00;3.42;;;;;;;;;;5091073;28;20067;-58
2023/01/03 09:22:27;;;;;;;20.05;3.60;;;;;;;;;;5091087;28;20074;-58
2023/01/03 09:24:54;;;;;;;17.55;3.00;;;;;;;;;;5089294;28;20776;-58
2023/01/03 09:27:20;;;;;;;22.38;3.03;;;;;;;;;;5050561;28;20053;-58
2023/01/03 09:29:47;;;;;;;18.35;3.15;;;;;;;;;;5051092;28;20057;-58
2023/01/03 09:32:14;;;;;;;17.63;2.28;;;;;;;;;;5051113;28;20137;-58
2023/01/03 09:34:40;;;;;;;15.00;1.95;;;;;;;;;;5051083;28;20083;-58
2023/01/03 09:37:07;;;;;;;16.27;1.80;;;;;;;;;;5047942;28;20119;-58
2023/01/03 09:39:33;;;;;;;16.30;1.85;;;;;;;;;;5050635;28;20063;-57
2023/01/03 09:44:45;;;;;;;10.35;0.90;;;;;;;;;;5049755;28;20144;-58
2023/01/03 09:47:17;;;;;;;4.78;0.57;;;;;;;;;;5050092;28;20049;-58
2023/01/03 09:49:43;;;;;;;16.63;0.88;;;;;;;;;;5050425;28;20143;-58
2023/01/03 10:03:57;;;;;;;6.57;0.73;;;;;;;;;;5051116;28;20080;-58
2023/01/03 10:06:42;;;;;;;11.63;0.95;;;;;;;;;;5051134;28;20460;-58
2023/01/03 10:09:20;;;;;;;14.50;1.42;;;;;;;;;;5050621;28;20451;-58
2023/01/03 10:11:55;;;;;;;16.88;2.40;;;;;;;;;;5050726;28;20091;-58
2023/01/03 10:14:24;;;;;;;15.38;2.60;;;;;;;;;;5050497;28;20037;-58
2023/01/03 10:16:54;;;;;;;32.97;3.53;;;;;;;;;;5050026;28;20045;-58
2023/01/03 10:19:26;;;;;;;26.27;3.30;;;;;;;;;;5053341;28;20076;-59
2023/01/03 10:22:02;;;;;;;18.88;3.25;;;;;;;;;;5053018;28;20053;-58
2023/01/03 10:24:30;;;;;;;21.63;3.55;;;;;;;;;;5053920;28;20088;-58
2023/01/03 10:27:06;;;;;;;30.08;4.50;;;;;;;;;;5087082;28;20488;-58
2023/01/03 10:29:33;;;;;;;26.95;3.45;;;;;;;;;;5094137;28;20055;-58
2023/01/03 10:32:12;;;;;;;22.40;3.50;;;;;;;;;;5094284;28;20137;-58
2023/01/03 10:34:39;;;;;;;18.88;3.63;;;;;;;;;;5094182;28;20050;-59
2023/01/03 10:37:16;;;;;;;23.48;3.08;;;;;;;;;;5094521;28;20044;-58
2023/01/03 10:39:42;;;;;;;19.95;2.63;;;;;;;;;;5092002;28;20058;-58
2023/01/03 10:42:18;;;;;;;18.73;2.40;;;;;;;;;;5093066;28;20115;-58
2023/01/03 10:44:56;;;;;;;13.65;2.10;;;;;;;;;;5094368;28;20056;-58
2023/01/03 10:47:23;;;;;;;16.38;1.73;;;;;;;;;;5094219;28;20341;-58
2023/01/03 10:49:56;;;;;;;12.13;1.77;;;;;;;;;;5094259;28;20080;-58
2023/01/03 10:52:23;;;;;;;7.80;1.52;;;;;;;;;;5085031;28;20096;-58
2023/01/03 10:54:52;;;;;;;3.92;1.15;;;;;;;;;;5089427;28;20048;-58
2023/01/03 10:57:38;;;;;;;13.23;1.75;;;;;;;;;;5091225;28;20040;-58
2023/01/03 11:00:25;;;;;;;9.38;1.63;;;;;;;;;;5109689;28;20040;-58
2023/01/03 11:02:52;;;;;;;16.90;2.08;;;;;;;;;;5083784;28;20058;-58
2023/01/03 11:05:21;;;;;;;19.15;1.70;;;;;;;;;;5094131;28;20194;-58
2023/01/03 11:07:55;;;;;;;10.43;1.00;;;;;;;;;;5093807;28;20067;-58
2023/01/03 11:10:22;;;;;;;15.27;1.27;;;;;;;;;;5093767;28;20055;-58
2023/01/03 11:12:48;;;;;;;8.45;0.98;;;;;;;;;;5093686;28;20062;-58
2023/01/03 11:15:30;;;;;;;13.50;1.45;;;;;;;;;;5093421;28;20042;-58
2023/01/03 11:18:26;;;;;;;12.85;1.15;;;;;;;;;;5093696;28;20040;-58
2023/01/03 11:20:59;;;;;;;13.68;1.73;;;;;;;;;;5093752;28;20139;-59
2023/01/03 11:23:30;;;;;;;5.88;1.30;;;;;;;;;;5079782;28;20048;-58
2023/01/03 11:26:12;;;;;;;8.13;1.02;;;;;;;;;;5091763;28;20410;-58
2023/01/03 11:28:41;;;;;;;8.07;1.02;;;;;;;;;;5090152;28;20048;-58
2023/01/03 11:31:26;;;;;;;6.15;1.10;;;;;;;;;;5092880;28;20139;-58
2023/01/03 11:33:56;;;;;;;7.05;1.40;;;;;;;;;;5094031;28;20052;-58
2023/01/03 11:36:33;;;;;;;10.43;1.90;;;;;;;;;;5093394;28;20055;-59
2023/01/03 11:38:59;;;;;;;9.98;1.67;;;;;;;;;;5093729;28;20047;-59
2023/01/03 11:41:44;;;;;;;8.88;2.17;;;;;;;;;;5093452;28;20048;-59
2023/01/03 11:44:29;;;;;;;12.73;2.83;;;;;;;;;;5093443;28;20048;-58
2023/01/03 11:46:56;;;;;;;17.00;2.80;;;;;;;;;;5093226;28;20062;-58
2023/01/03 11:49:48;;;;;;;16.42;3.05;;;;;;;;;;5081340;28;20052;-58
2023/01/03 11:52:33;;;;;;;18.85;3.17;;;;;;;;;;5089210;28;20055;-59
2023/01/03 11:55:18;;;;;;;14.85;2.92;;;;;;;;;;5093264;28;20043;-58
2023/01/03 11:57:44;;;;;;;16.45;3.05;;;;;;;;;;5093457;28;20465;-58
2023/01/03 12:00:16;;;;;;;16.85;2.35;;;;;;;;;;5093401;28;20044;-58
2023/01/03 12:03:01;;;;;;;25.25;4.30;;;;;;;;;;5093434;28;20139;-59
2023/01/03 12:05:41;;;;;;;17.52;2.95;;;;;;;;;;5093055;28;20055;-59
2023/01/03 12:08:17;;;;;;;21.20;3.75;;;;;;;;;;5093159;28;20055;-59
2023/01/03 12:10:52;;;;;;;25.92;4.40;;;;;;;;;;5093271;28;20109;-59
2023/01/03 12:13:25;;;;;;;23.42;3.10;;;;;;;;;;5093303;28;20056;-59
2023/01/03 12:16:13;;;;;;;32.43;4.10;;;;;;;;;;5092687;28;20080;-59
2023/01/03 12:18:40;;;;;;;23.92;3.60;;;;;;;;;;5093023;28;20058;-59
2023/01/03 12:21:25;;;;;;;33.50;4.00;;;;;;;;;;5092553;28;20496;-59
2023/01/03 12:23:52;;;;;;;26.40;4.57;;;;;;;;;;5092968;28;20040;-59
2023/01/03 12:26:21;;;;;;;26.65;3.95;;;;;;;;;;5089942;28;20056;-59
2023/01/03 12:29:02;;;;;;;34.33;5.15;;;;;;;;;;5092351;28;20048;-59
2023/01/03 12:31:32;;;;;;;32.20;4.38;;;;;;;;;;5082222;28;20083;-59
2023/01/03 12:34:02;;;;;;;36.10;5.18;;;;;;;;;;5088960;28;20059;-59
2023/01/03 12:36:38;;;;;;;39.97;5.90;;;;;;;;;;5107537;28;20071;-59
2023/01/03 12:39:10;;;;;;;34.83;5.20;;;;;;;;;;5091767;28;20044;-59
2023/01/03 12:41:43;;;;;;;43.70;6.40;;;;;;;;;;5091975;28;20044;-59
2023/01/03 12:44:13;;;;;;;37.95;6.03;;;;;;;;;;5092323;28;20134;-59
2023/01/03 12:46:42;;;;;;;40.85;5.90;;;;;;;;;;5092402;28;20055;-59
2023/01/03 12:49:13;;;;;;;49.53;6.00;;;;;;;;;;5091898;28;20048;-59
2023/01/03 12:51:40;;;;;;;39.47;5.57;;;;;;;;;;5092106;28;20410;-59
2023/01/03 12:54:24;;;;;;;36.45;4.75;;;;;;;;;;5091899;28;20195;-59
2023/01/03 12:56:57;;;;;;;43.22;6.20;;;;;;;;;;5091604;28;20087;-59
2023/01/03 12:59:23;;;;;;;40.28;6.60;;;;;;;;;;5091747;28;20047;-59
2023/01/03 13:01:57;;;;;;;41.30;6.43;;;;;;;;;;5091397;28;20044;-59
2023/01/03 13:04:27;;;;;;;46.75;6.05;;;;;;;;;;5091691;28;20127;-59
2023/01/03 13:07:02;;;;;;;45.45;6.05;;;;;;;;;;5091211;28;20048;-59
2023/01/03 13:09:30;;;;;;;39.88;6.25;;;;;;;;;;5091613;28;20075;-59
2023/01/03 13:12:04;;;;;;;37.33;5.40;;;;;;;;;;5091143;28;20078;-59
2023/01/03 13:14:48;;;;;;;38.30;6.07;;;;;;;;;;5088961;28;20040;-59
2023/01/03 13:17:16;;;;;;;45.13;6.38;;;;;;;;;;5091423;28;20044;-59
2023/01/03 13:19:49;;;;;;;49.95;6.72;;;;;;;;;;5091593;28;20054;-59
2023/01/03 13:22:44;;;;;;;47.47;6.78;;;;;;;;;;5088755;28;20066;-59
2023/01/03 13:25:23;;;;;;;41.00;5.95;;;;;;;;;;5086371;28;20044;-59
2023/01/03 13:27:49;;;;;;;40.40;5.65;;;;;;;;;;5091309;28;20164;-59
2023/01/03 13:30:18;;;;;;;39.75;5.68;;;;;;;;;;5091122;28;20150;-59
2023/01/03 13:33:03;;;;;;;38.58;4.93;;;;;;;;;;5091092;28;20048;-59
2023/01/03 13:35:34;;;;;;;39.33;5.40;;;;;;;;;;5091129;28;20131;-59
2023/01/03 13:38:18;;;;;;;40.28;5.60;;;;;;;;;;5091278;28;20105;-59
2023/01/03 13:40:52;;;;;;;38.42;4.90;;;;;;;;;;5091604;28;20059;-59
2023/01/03 13:43:38;;;;;;;37.45;5.07;;;;;;;;;;5091174;28;20052;-59
2023/01/03 13:46:23;;;;;;;36.30;5.53;;;;;;;;;;5090909;28;20117;-59
2023/01/03 13:49:01;;;;;;;34.58;4.75;;;;;;;;;;5091394;28;20088;-59
2023/01/03 13:51:32;;;;;;;33.55;4.53;;;;;;;;;;5091157;28;20087;-58
2023/01/03 13:53:59;;;;;;;32.13;4.82;;;;;;;;;;5090356;28;20131;-59
2023/01/03 13:56:41;;;;;;;32.05;4.22;;;;;;;;;;5091027;28;20056;-59
2023/01/03 13:59:13;;;;;;;31.02;4.68;;;;;;;;;;5091040;28;20048;-59
2023/01/03 14:01:46;;;;;;;30.83;5.03;;;;;;;;;;5085990;28;20491;-59
2023/01/03 14:04:31;;;;;;;31.38;5.50;;;;;;;;;;5076109;28;20058;-59
2023/01/03 14:07:09;;;;;;;33.05;4.25;;;;;;;;;;5089643;28;20084;-59
2023/01/03 14:09:44;;;;;;;35.45;4.80;;;;;;;;;;5091041;28;20075;-58
2023/01/03 14:12:20;;;;;;;21.35;3.65;;;;;;;;;;5090456;28;20491;-59
2023/01/03 14:14:56;;;;;;;27.40;4.22;;;;;;;;;;5090589;28;20074;-58
2023/01/03 14:17:25;;;;;;;25.65;4.25;;;;;;;;;;5090676;28;20040;-59
2023/01/03 14:19:53;;;;;;;38.03;4.65;;;;;;;;;;5091767;28;20412;-59
2023/01/03 14:22:20;;;;;;;;;;;;;;;;;;5091948;28;20123;-59
2023/01/03 14:24:56;;;;;;;39.28;4.45;;;;;;;;;;5091375;28;19924;-58
2023/01/03 14:27:27;;;;;;;44.55;4.72;;;;;;;;;;5091216;28;20546;-58
2023/01/03 14:29:54;;;;;;;28.25;3.83;;;;;;;;;;5091395;28;20044;-59
2023/01/03 14:32:25;;;;;;;45.88;6.00;;;;;;;;;;5091565;28;20083;-58
2023/01/03 14:34:59;;;;;;;28.10;3.45;;;;;;;;;;5091487;28;20056;-58
2023/01/03 14:37:26;;;;;;;33.10;3.85;;;;;;;;;;5091520;28;20064;-58
2023/01/03 14:39:56;;;;;;;26.55;3.90;;;;;;;;;;5091236;28;20050;-58
2023/01/03 14:42:23;;;;;;;38.78;4.45;;;;;;;;;;5091204;28;20473;-59
2023/01/03 14:44:59;;;;;;;35.83;4.07;;;;;;;;;;5091030;28;20130;-59
2023/01/03 14:47:32;;;;;;;26.67;3.22;;;;;;;;;;5091360;28;20044;-58
2023/01/03 14:49:58;;;;;;;22.48;2.65;;;;;;;;;;5091118;28;20054;-59
2023/01/03 14:52:33;;;;;;;34.53;3.53;;;;;;;;;;5090976;28;20052;-58
2023/01/03 14:55:07;;;;;;;24.83;2.95;;;;;;;;;;5090912;28;20131;-59
2023/01/03 14:57:37;;;;;;;37.15;5.03;;;;;;;;;;5090000;28;20040;-59
2023/01/03 15:00:05;;;;;;;16.02;2.30;;;;;;;;;;5090928;28;20101;-59
2023/01/03 15:02:35;;;;;;;16.10;2.85;;;;;;;;;;5090278;28;20048;-59
2023/01/03 15:05:02;;;;;;;18.20;2.30;;;;;;;;;;5092596;28;20067;-59
2023/01/03 15:07:33;;;;;;;19.90;2.05;;;;;;;;;;5093997;28;20050;-59
2023/01/03 15:10:01;;;;;;;12.13;2.60;;;;;;;;;;5093551;28;20047;-59
2023/01/03 15:12:28;;;;;;;24.20;3.05;;;;;;;;;;5093889;28;20044;-59
2023/01/03 15:14:55;;;;;;;18.63;2.58;;;;;;;;;;5091978;28;20440;-60
2023/01/03 15:17:24;;;;;;;18.17;2.28;;;;;;;;;;5084301;28;20045;-59
2023/01/03 15:19:52;;;;;;;15.63;2.80;;;;;;;;;;5085725;28;20048;-59
2023/01/03 15:22:23;;;;;;;23.08;2.65;;;;;;;;;;5093794;28;20591;-61
2023/01/03 15:24:53;;;;;;;26.00;2.58;;;;;;;;;;5093198;28;20131;-61
2023/01/03 15:27:35;;;;;;;23.08;2.45;;;;;;;;;;5093593;28;20542;-61
2023/01/03 15:30:11;;;;;;;31.67;2.97;;;;;;;;;;5093857;28;20052;-61
2023/01/03 15:32:44;;;;;;;26.27;2.38;;;;;;;;;;5093798;28;20052;-61
2023/01/03 15:35:18;;;;;;;31.10;3.58;;;;;;;;;;5093421;28;20083;-61
2023/01/03 15:37:44;;;;;;;19.10;2.13;;;;;;;;;;5093749;28;20040;-61
2023/01/03 15:40:12;;;;;;;16.10;2.30;;;;;;;;;;5093351;28;20043;-62
2023/01/03 15:45:27;;;;;;;21.25;2.72;;;;;;;;;;5093305;28;20439;-62
2023/01/03 15:47:56;;;;;;;23.90;2.67;;;;;;;;;;5093502;28;20078;-61
2023/01/03 15:50:24;;;;;;;21.15;2.50;;;;;;;;;;5093552;28;20476;-61
2023/01/03 15:52:50;;;;;;;13.25;2.15;;;;;;;;;;5093087;28;20055;-61